sensor_id;sensor_type;location;lat;lon;timestamp;temperature;humidity
47857;DHT22;33618;49.972;8.242;2022-08-19T00:03:10;22.70;92.30
47857;DHT22;33618;49.972;8.242;2022-08-19T00:05:38;22.80;92.30
47857;DHT22;33618;49.972;8.242;2022-08-19T00:15:18;22.80;92.20
47857;DHT22;33618;49.972;8.242;2022-08-19T00:17:46;22.90;92.20
47857;DHT22;33618;49.972;8.242;2022-08-19T00:31:06;22.80;92.30
47857;DHT22;33618;49.972;8.242;2022-08-19T00:33:34;22.70;92.40
47857;DHT22;33618;49.972;8.242;2022-08-19T00:36:04;22.80;92.40
47857;DHT22;33618;49.972;8.242;2022-08-19T00:38:34;22.70;92.40
47857;DHT22;33618;49.972;8.242;2022-08-19T00:41:05;22.80;92.50
47857;DHT22;33618;49.972;8.242;2022-08-19T00:43:33;22.70;92.50
47857;DHT22;33618;49.972;8.242;2022-08-19T00:46:00;22.70;92.50
47857;DHT22;33618;49.972;8.242;2022-08-19T00:48:32;22.70;92.60
47857;DHT22;33618;49.972;8.242;2022-08-19T00:58:32;22.60;92.70
47857;DHT22;33618;49.972;8.242;2022-08-19T01:01:00;22.60;92.80
47857;DHT22;33618;49.972;8.242;2022-08-19T01:06:50;22.80;92.40
47857;DHT22;33618;49.972;8.242;2022-08-19T01:12:41;22.80;92.50
47857;DHT22;33618;49.972;8.242;2022-08-19T01:15:10;22.70;92.60
47857;DHT22;33618;49.972;8.242;2022-08-19T01:21:43;22.60;92.70
47857;DHT22;33618;49.972;8.242;2022-08-19T01:27:43;22.40;93.10
47857;DHT22;33618;49.972;8.242;2022-08-19T01:30:20;22.30;93.40
47857;DHT22;33618;49.972;8.242;2022-08-19T01:40:12;22.20;93.90
47857;DHT22;33618;49.972;8.242;2022-08-19T01:42:39;22.10;93.90
47857;DHT22;33618;49.972;8.242;2022-08-19T01:49:12;22.10;94.10
47857;DHT22;33618;49.972;8.242;2022-08-19T01:51:39;22.20;94.10
47857;DHT22;33618;49.972;8.242;2022-08-19T01:54:08;22.20;94.10
47857;DHT22;33618;49.972;8.242;2022-08-19T01:59:59;22.20;94.00
47857;DHT22;33618;49.972;8.242;2022-08-19T02:02:26;22.20;94.20
47857;DHT22;33618;49.972;8.242;2022-08-19T02:08:16;22.00;94.40
47857;DHT22;33618;49.972;8.242;2022-08-19T02:10:43;22.00;94.50
47857;DHT22;33618;49.972;8.242;2022-08-19T02:16:35;22.10;94.50
47857;DHT22;33618;49.972;8.242;2022-08-19T02:22:26;22.10;94.40
47857;DHT22;33618;49.972;8.242;2022-08-19T02:24:53;22.10;94.30
47857;DHT22;33618;49.972;8.242;2022-08-19T02:30:46;22.10;94.20
47857;DHT22;33618;49.972;8.242;2022-08-19T02:33:13;22.20;94.30
47857;DHT22;33618;49.972;8.242;2022-08-19T02:39:09;22.20;94.20
47857;DHT22;33618;49.972;8.242;2022-08-19T02:41:36;22.10;94.20
47857;DHT22;33618;49.972;8.242;2022-08-19T02:44:04;22.10;94.30
47857;DHT22;33618;49.972;8.242;2022-08-19T02:46:51;22.10;94.30
47857;DHT22;33618;49.972;8.242;2022-08-19T02:56:49;21.80;94.80
47857;DHT22;33618;49.972;8.242;2022-08-19T02:59:16;21.90;94.70
47857;DHT22;33618;49.972;8.242;2022-08-19T03:05:12;21.80;95.00
47857;DHT22;33618;49.972;8.242;2022-08-19T03:07:39;21.70;95.10
47857;DHT22;33618;49.972;8.242;2022-08-19T03:13:29;21.50;95.60
47857;DHT22;33618;49.972;8.242;2022-08-19T03:19:20;21.60;95.60
47857;DHT22;33618;49.972;8.242;2022-08-19T03:21:48;21.50;95.70
47857;DHT22;33618;49.972;8.242;2022-08-19T03:28:12;21.40;96.00
47857;DHT22;33618;49.972;8.242;2022-08-19T03:34:16;21.40;96.10
47857;DHT22;33618;49.972;8.242;2022-08-19T03:36:45;21.20;96.40
47857;DHT22;33618;49.972;8.242;2022-08-19T03:43:30;21.20;96.70
47857;DHT22;33618;49.972;8.242;2022-08-19T03:46:07;21.10;97.00
47857;DHT22;33618;49.972;8.242;2022-08-19T03:56:03;20.90;97.50
47857;DHT22;33618;49.972;8.242;2022-08-19T03:58:30;20.90;97.60
47857;DHT22;33618;49.972;8.242;2022-08-19T04:04:23;20.70;98.00
47857;DHT22;33618;49.972;8.242;2022-08-19T04:06:50;20.70;98.20
47857;DHT22;33618;49.972;8.242;2022-08-19T04:12:41;20.50;98.60
47857;DHT22;33618;49.972;8.242;2022-08-19T04:15:08;20.60;98.50
47857;DHT22;33618;49.972;8.242;2022-08-19T04:21:02;20.50;98.80
47857;DHT22;33618;49.972;8.242;2022-08-19T04:26:52;20.50;98.80
47857;DHT22;33618;49.972;8.242;2022-08-19T04:29:22;20.50;98.90
47857;DHT22;33618;49.972;8.242;2022-08-19T04:35:15;20.40;99.10
47857;DHT22;33618;49.972;8.242;2022-08-19T04:37:47;20.40;99.20
47857;DHT22;33618;49.972;8.242;2022-08-19T04:43:38;20.30;99.50
47857;DHT22;33618;49.972;8.242;2022-08-19T04:46:07;20.30;99.60
47857;DHT22;33618;49.972;8.242;2022-08-19T04:51:58;20.30;99.50
47857;DHT22;33618;49.972;8.242;2022-08-19T04:54:25;20.40;99.50
47857;DHT22;33618;49.972;8.242;2022-08-19T05:00:28;20.50;99.30
47857;DHT22;33618;49.972;8.242;2022-08-19T05:02:55;20.50;99.20
47857;DHT22;33618;49.972;8.242;2022-08-19T05:08:45;20.60;98.90
47857;DHT22;33618;49.972;8.242;2022-08-19T05:14:36;20.70;98.90
47857;DHT22;33618;49.972;8.242;2022-08-19T05:17:03;20.80;98.80
47857;DHT22;33618;49.972;8.242;2022-08-19T05:23:31;20.90;98.70
47857;DHT22;33618;49.972;8.242;2022-08-19T05:25:58;21.00;98.30
47857;DHT22;33618;49.972;8.242;2022-08-19T05:31:48;21.20;98.20
47857;DHT22;33618;49.972;8.242;2022-08-19T05:34:17;21.20;97.90
47857;DHT22;33618;49.972;8.242;2022-08-19T05:40:09;21.20;98.00
47857;DHT22;33618;49.972;8.242;2022-08-19T05:42:37;21.30;98.10
47857;DHT22;33618;49.972;8.242;2022-08-19T05:52:37;21.60;97.50
47857;DHT22;33618;49.972;8.242;2022-08-19T06:02:35;21.90;96.90
47857;DHT22;33618;49.972;8.242;2022-08-19T06:05:04;21.90;97.10
47857;DHT22;33618;49.972;8.242;2022-08-19T06:15:11;22.10;96.60
47857;DHT22;33618;49.972;8.242;2022-08-19T06:17:40;22.10;96.40
47857;DHT22;33618;49.972;8.242;2022-08-19T06:27:13;22.00;96.40
47857;DHT22;33618;49.972;8.242;2022-08-19T06:29:40;21.90;96.80
47857;DHT22;33618;49.972;8.242;2022-08-19T06:35:31;21.80;97.20
47857;DHT22;33618;49.972;8.242;2022-08-19T06:37:58;21.90;97.10
47857;DHT22;33618;49.972;8.242;2022-08-19T06:43:49;22.00;97.00
47857;DHT22;33618;49.972;8.242;2022-08-19T06:46:20;22.00;97.00
47857;DHT22;33618;49.972;8.242;2022-08-19T06:52:11;22.00;96.90
47857;DHT22;33618;49.972;8.242;2022-08-19T06:54:42;22.20;96.80
47857;DHT22;33618;49.972;8.242;2022-08-19T07:00:45;22.20;96.50
47857;DHT22;33618;49.972;8.242;2022-08-19T07:03:12;22.30;96.50
47857;DHT22;33618;49.972;8.242;2022-08-19T07:09:12;22.30;96.30
47857;DHT22;33618;49.972;8.242;2022-08-19T07:15:08;22.80;95.80
47857;DHT22;33618;49.972;8.242;2022-08-19T07:17:37;23.10;95.20
47857;DHT22;33618;49.972;8.242;2022-08-19T07:20:42;23.30;94.90
47857;DHT22;33618;49.972;8.242;2022-08-19T07:23:10;23.20;94.60
47857;DHT22;33618;49.972;8.242;2022-08-19T07:29:08;23.50;94.50
47857;DHT22;33618;49.972;8.242;2022-08-19T07:31:36;23.80;94.10
47857;DHT22;33618;49.972;8.242;2022-08-19T07:37:28;23.90;93.50
47857;DHT22;33618;49.972;8.242;2022-08-19T07:44:25;24.10;93.10
47857;DHT22;33618;49.972;8.242;2022-08-19T07:46:55;24.40;92.50
47857;DHT22;33618;49.972;8.242;2022-08-19T07:56:46;24.50;92.20
47857;DHT22;33618;49.972;8.242;2022-08-19T07:59:13;24.50;91.80
47857;DHT22;33618;49.972;8.242;2022-08-19T08:01:40;24.50;91.70
47857;DHT22;33618;49.972;8.242;2022-08-19T08:04:07;24.70;91.40
47857;DHT22;33618;49.972;8.242;2022-08-19T08:10:17;24.70;91.10
47857;DHT22;33618;49.972;8.242;2022-08-19T08:20:18;24.80;90.60
47857;DHT22;33618;49.972;8.242;2022-08-19T08:30:15;25.50;89.20
47857;DHT22;33618;49.972;8.242;2022-08-19T08:32:44;25.50;88.30
47857;DHT22;33618;49.972;8.242;2022-08-19T08:42:45;25.00;88.30
47857;DHT22;33618;49.972;8.242;2022-08-19T08:45:17;25.10;88.40
47857;DHT22;33618;49.972;8.242;2022-08-19T08:47:48;25.30;88.30
47857;DHT22;33618;49.972;8.242;2022-08-19T08:50:31;25.50;86.80
47857;DHT22;33618;49.972;8.242;2022-08-19T08:53:03;25.80;85.90
47857;DHT22;33618;49.972;8.242;2022-08-19T08:55:32;26.20;85.20
47857;DHT22;33618;49.972;8.242;2022-08-19T08:58:26;26.40;83.20
47857;DHT22;33618;49.972;8.242;2022-08-19T09:00:54;26.80;82.60
47857;DHT22;33618;49.972;8.242;2022-08-19T09:03:26;27.10;81.70
47857;DHT22;33618;49.972;8.242;2022-08-19T09:06:01;27.50;80.50
47857;DHT22;33618;49.972;8.242;2022-08-19T09:17:21;27.60;78.80
47857;DHT22;33618;49.972;8.242;2022-08-19T09:22:37;27.20;79.20
47857;DHT22;33618;49.972;8.242;2022-08-19T09:28:27;27.90;77.20
47857;DHT22;33618;49.972;8.242;2022-08-19T09:30:57;28.50;75.90
47857;DHT22;33618;49.972;8.242;2022-08-19T09:33:24;29.10;74.60
47857;DHT22;33618;49.972;8.242;2022-08-19T09:36:04;29.70;73.40
47857;DHT22;33618;49.972;8.242;2022-08-19T09:38:35;30.10;72.10
47857;DHT22;33618;49.972;8.242;2022-08-19T09:41:18;30.20;72.00
47857;DHT22;33618;49.972;8.242;2022-08-19T09:43:48;30.50;71.20
47857;DHT22;33618;49.972;8.242;2022-08-19T09:46:19;30.80;69.90
47857;DHT22;33618;49.972;8.242;2022-08-19T09:48:50;29.90;70.30
47857;DHT22;33618;49.972;8.242;2022-08-19T09:51:20;29.70;70.60
47857;DHT22;33618;49.972;8.242;2022-08-19T09:53:50;29.40;70.70
47857;DHT22;33618;49.972;8.242;2022-08-19T09:56:19;29.30;70.90
47857;DHT22;33618;49.972;8.242;2022-08-19T09:58:47;29.70;70.90
47857;DHT22;33618;49.972;8.242;2022-08-19T10:01:22;30.00;70.20
47857;DHT22;33618;49.972;8.242;2022-08-19T10:03:52;30.00;70.10
47857;DHT22;33618;49.972;8.242;2022-08-19T10:06:22;30.00;67.30
47857;DHT22;33618;49.972;8.242;2022-08-19T10:09:10;29.80;67.90
47857;DHT22;33618;49.972;8.242;2022-08-19T10:11:40;30.10;68.20
47857;DHT22;33618;49.972;8.242;2022-08-19T10:14:19;30.80;67.40
47857;DHT22;33618;49.972;8.242;2022-08-19T10:16:49;30.80;66.60
47857;DHT22;33618;49.972;8.242;2022-08-19T10:19:17;30.60;66.60
47857;DHT22;33618;49.972;8.242;2022-08-19T10:21:53;30.60;66.80
47857;DHT22;33618;49.972;8.242;2022-08-19T10:24:25;30.70;65.80
47857;DHT22;33618;49.972;8.242;2022-08-19T10:26:55;30.90;66.40
47857;DHT22;33618;49.972;8.242;2022-08-19T10:29:26;31.20;66.20
47857;DHT22;33618;49.972;8.242;2022-08-19T10:32:03;31.70;65.10
47857;DHT22;33618;49.972;8.242;2022-08-19T10:34:37;31.90;65.10
47857;DHT22;33618;49.972;8.242;2022-08-19T10:37:15;32.10;64.60
47857;DHT22;33618;49.972;8.242;2022-08-19T10:39:57;32.40;62.70
47857;DHT22;33618;49.972;8.242;2022-08-19T10:42:24;31.90;63.80
47857;DHT22;33618;49.972;8.242;2022-08-19T10:44:51;31.60;63.30
47857;DHT22;33618;49.972;8.242;2022-08-19T10:47:18;31.60;63.30
47857;DHT22;33618;49.972;8.242;2022-08-19T10:49:53;31.60;62.30
47857;DHT22;33618;49.972;8.242;2022-08-19T10:52:41;31.70;63.00
47857;DHT22;33618;49.972;8.242;2022-08-19T10:55:18;31.80;62.60
47857;DHT22;33618;49.972;8.242;2022-08-19T10:58:23;31.80;63.10
47857;DHT22;33618;49.972;8.242;2022-08-19T11:00:54;32.10;62.20
47857;DHT22;33618;49.972;8.242;2022-08-19T11:03:23;31.90;60.50
47857;DHT22;33618;49.972;8.242;2022-08-19T11:06:01;31.80;62.00
47857;DHT22;33618;49.972;8.242;2022-08-19T11:08:28;32.10;62.30
47857;DHT22;33618;49.972;8.242;2022-08-19T11:10:59;32.00;61.50
47857;DHT22;33618;49.972;8.242;2022-08-19T11:13:28;32.40;61.40
47857;DHT22;33618;49.972;8.242;2022-08-19T11:16:00;32.80;60.90
47857;DHT22;33618;49.972;8.242;2022-08-19T11:18:37;32.60;61.10
47857;DHT22;33618;49.972;8.242;2022-08-19T11:21:10;32.40;59.50
47857;DHT22;33618;49.972;8.242;2022-08-19T11:23:37;32.50;60.40
47857;DHT22;33618;49.972;8.242;2022-08-19T11:29:28;32.90;60.20
47857;DHT22;33618;49.972;8.242;2022-08-19T11:31:55;32.70;59.90
47857;DHT22;33618;49.972;8.242;2022-08-19T11:34:26;32.80;58.80
47857;DHT22;33618;49.972;8.242;2022-08-19T11:36:54;32.20;59.30
47857;DHT22;33618;49.972;8.242;2022-08-19T11:39:27;31.60;58.40
47857;DHT22;33618;49.972;8.242;2022-08-19T11:41:54;31.60;59.20
47857;DHT22;33618;49.972;8.242;2022-08-19T11:44:21;31.90;59.00
47857;DHT22;33618;49.972;8.242;2022-08-19T11:46:48;32.30;59.80
47857;DHT22;33618;49.972;8.242;2022-08-19T11:49:17;32.40;59.40
47857;DHT22;33618;49.972;8.242;2022-08-19T11:51:45;32.80;58.70
47857;DHT22;33618;49.972;8.242;2022-08-19T11:54:15;32.90;59.10
47857;DHT22;33618;49.972;8.242;2022-08-19T11:56:44;33.40;58.50
47857;DHT22;33618;49.972;8.242;2022-08-19T11:59:13;33.00;58.20
47857;DHT22;33618;49.972;8.242;2022-08-19T12:01:41;32.20;58.30
47857;DHT22;33618;49.972;8.242;2022-08-19T12:04:10;31.90;58.80
47857;DHT22;33618;49.972;8.242;2022-08-19T12:06:39;32.20;58.30
47857;DHT22;33618;49.972;8.242;2022-08-19T12:09:07;32.20;58.30
47857;DHT22;33618;49.972;8.242;2022-08-19T12:11:37;31.90;58.50
47857;DHT22;33618;49.972;8.242;2022-08-19T12:14:05;31.90;59.30
47857;DHT22;33618;49.972;8.242;2022-08-19T12:16:33;32.20;59.10
47857;DHT22;33618;49.972;8.242;2022-08-19T12:19:04;32.50;58.40
47857;DHT22;33618;49.972;8.242;2022-08-19T12:21:35;32.00;58.30
47857;DHT22;33618;49.972;8.242;2022-08-19T12:24:03;31.80;58.80
47857;DHT22;33618;49.972;8.242;2022-08-19T12:30:09;31.60;58.20
47857;DHT22;33618;49.972;8.242;2022-08-19T12:32:36;31.30;57.80
47857;DHT22;33618;49.972;8.242;2022-08-19T12:35:05;30.90;58.00
47857;DHT22;33618;49.972;8.242;2022-08-19T12:37:33;30.60;58.50
47857;DHT22;33618;49.972;8.242;2022-08-19T12:40:00;30.60;58.50
47857;DHT22;33618;49.972;8.242;2022-08-19T12:42:27;31.20;58.30
47857;DHT22;33618;49.972;8.242;2022-08-19T12:44:54;31.80;58.70
47857;DHT22;33618;49.972;8.242;2022-08-19T12:47:22;32.00;58.10
47857;DHT22;33618;49.972;8.242;2022-08-19T12:49:49;31.70;57.40
47857;DHT22;33618;49.972;8.242;2022-08-19T12:52:24;31.50;58.90
47857;DHT22;33618;49.972;8.242;2022-08-19T12:54:55;31.40;58.40
47857;DHT22;33618;49.972;8.242;2022-08-19T12:57:24;31.20;58.00
47857;DHT22;33618;49.972;8.242;2022-08-19T13:00:00;31.00;57.90
47857;DHT22;33618;49.972;8.242;2022-08-19T13:02:31;31.00;58.20
47857;DHT22;33618;49.972;8.242;2022-08-19T13:05:06;31.60;57.50
47857;DHT22;33618;49.972;8.242;2022-08-19T13:07:35;31.90;56.20
47857;DHT22;33618;49.972;8.242;2022-08-19T13:10:05;32.60;56.00
47857;DHT22;33618;49.972;8.242;2022-08-19T13:12:32;33.00;54.60
47857;DHT22;33618;49.972;8.242;2022-08-19T13:14:59;32.80;54.50
47857;DHT22;33618;49.972;8.242;2022-08-19T13:17:26;32.80;55.10
47857;DHT22;33618;49.972;8.242;2022-08-19T13:19:53;33.30;55.30
47857;DHT22;33618;49.972;8.242;2022-08-19T13:22:20;33.60;55.40
47857;DHT22;33618;49.972;8.242;2022-08-19T13:24:47;33.90;55.80
47857;DHT22;33618;49.972;8.242;2022-08-19T13:30:42;33.90;55.50
47857;DHT22;33618;49.972;8.242;2022-08-19T13:33:31;34.50;55.50
47857;DHT22;33618;49.972;8.242;2022-08-19T13:36:01;34.90;55.10
47857;DHT22;33618;49.972;8.242;2022-08-19T13:38:28;35.40;53.80
47857;DHT22;33618;49.972;8.242;2022-08-19T13:41:04;35.20;53.60
47857;DHT22;33618;49.972;8.242;2022-08-19T13:43:37;34.80;54.10
47857;DHT22;33618;49.972;8.242;2022-08-19T13:46:09;34.60;53.00
47857;DHT22;33618;49.972;8.242;2022-08-19T13:48:36;34.20;52.60
47857;DHT22;33618;49.972;8.242;2022-08-19T13:51:04;34.60;54.40
47857;DHT22;33618;49.972;8.242;2022-08-19T13:53:31;35.00;54.10
47857;DHT22;33618;49.972;8.242;2022-08-19T13:55:59;35.50;53.40
47857;DHT22;33618;49.972;8.242;2022-08-19T13:58:26;35.70;53.00
47857;DHT22;33618;49.972;8.242;2022-08-19T14:00:52;36.20;52.40
47857;DHT22;33618;49.972;8.242;2022-08-19T14:03:19;36.50;50.90
47857;DHT22;33618;49.972;8.242;2022-08-19T14:05:46;36.10;49.50
47857;DHT22;33618;49.972;8.242;2022-08-19T14:08:13;36.20;50.10
47857;DHT22;33618;49.972;8.242;2022-08-19T14:10:40;36.00;48.60
47857;DHT22;33618;49.972;8.242;2022-08-19T14:13:09;35.90;49.20
47857;DHT22;33618;49.972;8.242;2022-08-19T14:15:37;35.90;51.00
47857;DHT22;33618;49.972;8.242;2022-08-19T14:18:04;36.40;50.80
47857;DHT22;33618;49.972;8.242;2022-08-19T14:20:34;37.00;51.20
47857;DHT22;33618;49.972;8.242;2022-08-19T14:23:02;36.90;51.10
47857;DHT22;33618;49.972;8.242;2022-08-19T14:25:30;36.40;51.00
47857;DHT22;33618;49.972;8.242;2022-08-19T14:27:58;36.10;51.00
47857;DHT22;33618;49.972;8.242;2022-08-19T14:30:31;36.40;50.90
47857;DHT22;33618;49.972;8.242;2022-08-19T14:33:00;35.90;49.80
47857;DHT22;33618;49.972;8.242;2022-08-19T14:38:50;36.60;50.70
47857;DHT22;33618;49.972;8.242;2022-08-19T14:41:22;35.90;50.80
47857;DHT22;33618;49.972;8.242;2022-08-19T14:43:51;36.00;51.30
47857;DHT22;33618;49.972;8.242;2022-08-19T14:46:20;36.30;50.50
47857;DHT22;33618;49.972;8.242;2022-08-19T14:48:49;36.40;50.60
47857;DHT22;33618;49.972;8.242;2022-08-19T14:51:19;36.50;51.00
47857;DHT22;33618;49.972;8.242;2022-08-19T14:53:47;36.40;50.70
47857;DHT22;33618;49.972;8.242;2022-08-19T14:56:20;36.20;51.10
47857;DHT22;33618;49.972;8.242;2022-08-19T14:58:48;36.30;51.00
47857;DHT22;33618;49.972;8.242;2022-08-19T15:01:19;36.60;50.80
47857;DHT22;33618;49.972;8.242;2022-08-19T15:03:48;36.70;50.70
47857;DHT22;33618;49.972;8.242;2022-08-19T15:06:15;36.70;50.90
47857;DHT22;33618;49.972;8.242;2022-08-19T15:08:42;36.80;50.90
47857;DHT22;33618;49.972;8.242;2022-08-19T15:11:14;36.50;51.00
47857;DHT22;33618;49.972;8.242;2022-08-19T15:13:43;36.50;50.50
47857;DHT22;33618;49.972;8.242;2022-08-19T15:16:10;36.40;50.70
47857;DHT22;33618;49.972;8.242;2022-08-19T15:18:45;36.60;50.80
47857;DHT22;33618;49.972;8.242;2022-08-19T15:21:14;36.40;51.50
47857;DHT22;33618;49.972;8.242;2022-08-19T15:23:53;36.30;50.30
47857;DHT22;33618;49.972;8.242;2022-08-19T15:26:20;36.10;51.60
47857;DHT22;33618;49.972;8.242;2022-08-19T15:28:47;35.90;51.60
47857;DHT22;33618;49.972;8.242;2022-08-19T15:31:18;36.00;51.00
47857;DHT22;33618;49.972;8.242;2022-08-19T15:33:55;35.90;51.30
47857;DHT22;33618;49.972;8.242;2022-08-19T15:39:47;35.60;50.20
47857;DHT22;33618;49.972;8.242;2022-08-19T15:42:14;35.50;51.40
47857;DHT22;33618;49.972;8.242;2022-08-19T15:44:55;35.30;51.00
47857;DHT22;33618;49.972;8.242;2022-08-19T15:47:31;35.20;51.00
47857;DHT22;33618;49.972;8.242;2022-08-19T15:50:19;35.20;51.10
47857;DHT22;33618;49.972;8.242;2022-08-19T15:52:52;34.90;51.30
47857;DHT22;33618;49.972;8.242;2022-08-19T15:55:25;34.80;51.30
47857;DHT22;33618;49.972;8.242;2022-08-19T15:58:08;34.50;51.60
47857;DHT22;33618;49.972;8.242;2022-08-19T16:01:05;34.20;51.80
47857;DHT22;33618;49.972;8.242;2022-08-19T16:03:54;34.50;51.80
47857;DHT22;33618;49.972;8.242;2022-08-19T16:06:47;34.90;51.70
47857;DHT22;33618;49.972;8.242;2022-08-19T16:09:15;35.00;51.20
47857;DHT22;33618;49.972;8.242;2022-08-19T16:11:43;35.10;50.80
47857;DHT22;33618;49.972;8.242;2022-08-19T16:14:16;34.70;51.40
47857;DHT22;33618;49.972;8.242;2022-08-19T16:16:45;34.40;51.80
47857;DHT22;33618;49.972;8.242;2022-08-19T16:19:15;34.40;51.70
47857;DHT22;33618;49.972;8.242;2022-08-19T16:21:44;34.20;51.30
47857;DHT22;33618;49.972;8.242;2022-08-19T16:24:14;34.00;51.50
47857;DHT22;33618;49.972;8.242;2022-08-19T16:26:42;33.90;52.10
47857;DHT22;33618;49.972;8.242;2022-08-19T16:29:10;33.70;51.90
47857;DHT22;33618;49.972;8.242;2022-08-19T16:31:40;33.60;52.50
47857;DHT22;33618;49.972;8.242;2022-08-19T16:34:07;33.40;51.80
47857;DHT22;33618;49.972;8.242;2022-08-19T16:36:34;33.50;51.90
47857;DHT22;33618;49.972;8.242;2022-08-19T16:46:26;33.00;52.70
47857;DHT22;33618;49.972;8.242;2022-08-19T16:48:53;33.20;52.60
47857;DHT22;33618;49.972;8.242;2022-08-19T16:51:21;33.20;52.50
47857;DHT22;33618;49.972;8.242;2022-08-19T16:53:48;33.00;52.80
47857;DHT22;33618;49.972;8.242;2022-08-19T16:56:18;33.10;53.00
47857;DHT22;33618;49.972;8.242;2022-08-19T16:58:47;33.00;52.80
47857;DHT22;33618;49.972;8.242;2022-08-19T17:01:14;33.10;52.50
47857;DHT22;33618;49.972;8.242;2022-08-19T17:03:41;32.70;53.30
47857;DHT22;33618;49.972;8.242;2022-08-19T17:06:13;32.70;53.00
47857;DHT22;33618;49.972;8.242;2022-08-19T17:08:48;32.40;52.20
47857;DHT22;33618;49.972;8.242;2022-08-19T17:11:16;32.50;53.30
47857;DHT22;33618;49.972;8.242;2022-08-19T17:13:45;32.20;52.30
47857;DHT22;33618;49.972;8.242;2022-08-19T17:16:22;32.20;53.10
47857;DHT22;33618;49.972;8.242;2022-08-19T17:18:52;32.10;53.10
47857;DHT22;33618;49.972;8.242;2022-08-19T17:21:26;32.00;53.10
47857;DHT22;33618;49.972;8.242;2022-08-19T17:23:55;31.90;53.00
47857;DHT22;33618;49.972;8.242;2022-08-19T17:26:23;31.90;52.80
47857;DHT22;33618;49.972;8.242;2022-08-19T17:28:53;32.00;53.10
47857;DHT22;33618;49.972;8.242;2022-08-19T17:31:26;32.10;52.90
47857;DHT22;33618;49.972;8.242;2022-08-19T17:33:59;31.90;53.00
47857;DHT22;33618;49.972;8.242;2022-08-19T17:36:31;31.50;52.60
47857;DHT22;33618;49.972;8.242;2022-08-19T17:42:24;31.00;52.70
47857;DHT22;33618;49.972;8.242;2022-08-19T17:45:03;30.90;53.20
47857;DHT22;33618;49.972;8.242;2022-08-19T17:47:34;31.00;53.10
47857;DHT22;33618;49.972;8.242;2022-08-19T17:50:04;31.00;53.80
47857;DHT22;33618;49.972;8.242;2022-08-19T17:52:32;30.90;53.00
47857;DHT22;33618;49.972;8.242;2022-08-19T17:55:00;30.70;53.30
47857;DHT22;33618;49.972;8.242;2022-08-19T17:57:27;30.70;54.20
47857;DHT22;33618;49.972;8.242;2022-08-19T17:59:54;30.70;54.20
47857;DHT22;33618;49.972;8.242;2022-08-19T18:02:23;30.50;53.50
47857;DHT22;33618;49.972;8.242;2022-08-19T18:04:50;30.40;53.90
47857;DHT22;33618;49.972;8.242;2022-08-19T18:07:17;30.10;54.20
47857;DHT22;33618;49.972;8.242;2022-08-19T18:09:48;29.90;54.90
47857;DHT22;33618;49.972;8.242;2022-08-19T18:12:23;29.80;54.50
47857;DHT22;33618;49.972;8.242;2022-08-19T18:14:50;29.60;55.40
47857;DHT22;33618;49.972;8.242;2022-08-19T18:17:17;29.40;55.30
47857;DHT22;33618;49.972;8.242;2022-08-19T18:19:46;29.20;55.30
47857;DHT22;33618;49.972;8.242;2022-08-19T18:22:25;29.10;55.40
47857;DHT22;33618;49.972;8.242;2022-08-19T18:24:53;28.80;55.60
47857;DHT22;33618;49.972;8.242;2022-08-19T18:27:20;28.70;56.10
47857;DHT22;33618;49.972;8.242;2022-08-19T18:29:48;28.50;56.20
47857;DHT22;33618;49.972;8.242;2022-08-19T18:32:16;28.40;56.30
47857;DHT22;33618;49.972;8.242;2022-08-19T18:34:50;28.40;56.70
47857;DHT22;33618;49.972;8.242;2022-08-19T18:37:17;28.30;56.50
47857;DHT22;33618;49.972;8.242;2022-08-19T18:47:08;28.00;57.80
47857;DHT22;33618;49.972;8.242;2022-08-19T18:49:54;27.80;56.90
47857;DHT22;33618;49.972;8.242;2022-08-19T18:52:21;27.60;58.10
47857;DHT22;33618;49.972;8.242;2022-08-19T18:54:52;27.60;58.00
47857;DHT22;33618;49.972;8.242;2022-08-19T18:57:20;27.60;57.40
47857;DHT22;33618;49.972;8.242;2022-08-19T18:59:52;27.50;58.00
47857;DHT22;33618;49.972;8.242;2022-08-19T19:02:22;27.40;57.40
47857;DHT22;33618;49.972;8.242;2022-08-19T19:04:50;27.30;58.20
47857;DHT22;33618;49.972;8.242;2022-08-19T19:07:17;27.40;58.60
47857;DHT22;33618;49.972;8.242;2022-08-19T19:09:44;27.30;58.00
47857;DHT22;33618;49.972;8.242;2022-08-19T19:12:16;27.20;58.20
47857;DHT22;33618;49.972;8.242;2022-08-19T19:14:44;27.10;57.90
47857;DHT22;33618;49.972;8.242;2022-08-19T19:17:16;27.10;59.10
47857;DHT22;33618;49.972;8.242;2022-08-19T19:19:43;26.90;58.40
47857;DHT22;33618;49.972;8.242;2022-08-19T19:22:12;27.00;59.50
47857;DHT22;33618;49.972;8.242;2022-08-19T19:24:41;27.00;58.70
47857;DHT22;33618;49.972;8.242;2022-08-19T19:27:12;26.90;59.50
47857;DHT22;33618;49.972;8.242;2022-08-19T19:29:40;26.70;58.50
47857;DHT22;33618;49.972;8.242;2022-08-19T19:32:17;26.70;59.00
47857;DHT22;33618;49.972;8.242;2022-08-19T19:34:45;26.80;59.00
47857;DHT22;33618;49.972;8.242;2022-08-19T19:37:12;26.70;59.50
47857;DHT22;33618;49.972;8.242;2022-08-19T19:43:03;26.60;59.70
47857;DHT22;33618;49.972;8.242;2022-08-19T19:45:31;26.60;59.50
47857;DHT22;33618;49.972;8.242;2022-08-19T19:47:59;26.40;59.40
47857;DHT22;33618;49.972;8.242;2022-08-19T19:50:26;26.60;59.30
47857;DHT22;33618;49.972;8.242;2022-08-19T19:52:57;26.70;59.70
47857;DHT22;33618;49.972;8.242;2022-08-19T19:55:24;26.70;59.60
47857;DHT22;33618;49.972;8.242;2022-08-19T19:57:52;26.70;59.80
47857;DHT22;33618;49.972;8.242;2022-08-19T20:00:21;26.70;59.00
47857;DHT22;33618;49.972;8.242;2022-08-19T20:02:48;26.50;60.00
47857;DHT22;33618;49.972;8.242;2022-08-19T20:05:17;26.60;59.90
47857;DHT22;33618;49.972;8.242;2022-08-19T20:07:46;26.70;60.00
47857;DHT22;33618;49.972;8.242;2022-08-19T20:10:32;26.70;59.20
47857;DHT22;33618;49.972;8.242;2022-08-19T20:13:01;26.50;59.10
47857;DHT22;33618;49.972;8.242;2022-08-19T20:15:29;26.20;59.30
47857;DHT22;33618;49.972;8.242;2022-08-19T20:17:58;26.40;60.40
47857;DHT22;33618;49.972;8.242;2022-08-19T20:20:26;26.40;59.50
47857;DHT22;33618;49.972;8.242;2022-08-19T20:22:53;26.20;59.80
47857;DHT22;33618;49.972;8.242;2022-08-19T20:25:20;25.90;59.70
47857;DHT22;33618;49.972;8.242;2022-08-19T20:27:48;25.80;60.90
47857;DHT22;33618;49.972;8.242;2022-08-19T20:30:18;25.90;60.00
47857;DHT22;33618;49.972;8.242;2022-08-19T20:32:47;25.80;60.70
47857;DHT22;33618;49.972;8.242;2022-08-19T20:35:17;25.70;60.40
47857;DHT22;33618;49.972;8.242;2022-08-19T20:37:44;25.70;60.40
47857;DHT22;33618;49.972;8.242;2022-08-19T20:47:55;25.60;60.70
47857;DHT22;33618;49.972;8.242;2022-08-19T20:50:22;25.50;60.90
47857;DHT22;33618;49.972;8.242;2022-08-19T20:52:49;25.50;61.40
47857;DHT22;33618;49.972;8.242;2022-08-19T20:55:19;25.80;60.90
47857;DHT22;33618;49.972;8.242;2022-08-19T20:57:47;25.70;60.90
47857;DHT22;33618;49.972;8.242;2022-08-19T21:00:15;25.30;61.30